sensor_id;sensor_type;location;lat;lon;timestamp;temperature;humidity
4429;DHT22;2227;47.810;8.810;2023-11-21T04:49:56;7.70;99.90
4429;DHT22;2227;47.810;8.810;2023-11-21T04:52:22;7.60;99.90
4429;DHT22;2227;47.810;8.810;2023-11-21T04:54:49;7.60;99.90
4429;DHT22;2227;47.810;8.810;2023-11-21T04:57:16;7.60;99.90
4429;DHT22;2227;47.810;8.810;2023-11-21T04:59:44;7.70;99.90
4429;DHT22;2227;47.810;8.810;2023-11-21T05:02:11;7.80;99.90
4429;DHT22;2227;47.810;8.810;2023-11-21T05:04:58;7.70;99.90
4429;DHT22;2227;47.810;8.810;2023-11-21T05:07:25;7.70;99.90
4429;DHT22;2227;47.810;8.810;2023-11-21T05:09:58;7.70;99.90
4429;DHT22;2227;47.810;8.810;2023-11-21T05:12:25;7.60;99.90
4429;DHT22;2227;47.810;8.810;2023-11-21T05:14:51;7.50;99.90
4429;DHT22;2227;47.810;8.810;2023-11-21T05:17:18;7.40;99.90
4429;DHT22;2227;47.810;8.810;2023-11-21T05:19:45;7.40;99.90
4429;DHT22;2227;47.810;8.810;2023-11-21T05:22:15;7.50;99.90
4429;DHT22;2227;47.810;8.810;2023-11-21T05:24:42;7.40;99.90
4429;DHT22;2227;47.810;8.810;2023-11-21T05:27:09;7.40;99.90
4429;DHT22;2227;47.810;8.810;2023-11-21T05:29:36;7.30;99.90
4429;DHT22;2227;47.810;8.810;2023-11-21T05:32:04;7.30;99.90
4429;DHT22;2227;47.810;8.810;2023-11-21T05:34:31;7.40;99.90
4429;DHT22;2227;47.810;8.810;2023-11-21T05:36:58;7.30;99.90
4429;DHT22;2227;47.810;8.810;2023-11-21T05:39:25;7.40;99.90
4429;DHT22;2227;47.810;8.810;2023-11-21T05:41:52;7.40;99.90
4429;DHT22;2227;47.810;8.810;2023-11-21T05:44:18;7.50;99.90
4429;DHT22;2227;47.810;8.810;2023-11-21T05:46:45;7.40;99.90
4429;DHT22;2227;47.810;8.810;2023-11-21T05:49:12;7.40;99.90
4429;DHT22;2227;47.810;8.810;2023-11-21T05:51:39;7.50;99.90
4429;DHT22;2227;47.810;8.810;2023-11-21T05:54:06;7.50;99.90
4429;DHT22;2227;47.810;8.810;2023-11-21T05:56:32;7.40;99.90
4429;DHT22;2227;47.810;8.810;2023-11-21T05:58:59;7.40;99.90
4429;DHT22;2227;47.810;8.810;2023-11-21T06:01:26;7.50;99.90
4429;DHT22;2227;47.810;8.810;2023-11-21T06:03:56;7.50;99.90
4429;DHT22;2227;47.810;8.810;2023-11-21T06:06:23;7.40;99.90
4429;DHT22;2227;47.810;8.810;2023-11-21T06:08:51;7.40;99.90
4429;DHT22;2227;47.810;8.810;2023-11-21T06:11:18;7.50;99.90
4429;DHT22;2227;47.810;8.810;2023-11-21T06:13:44;7.50;99.90
4429;DHT22;2227;47.810;8.810;2023-11-21T06:16:11;7.50;99.90
4429;DHT22;2227;47.810;8.810;2023-11-21T06:18:43;7.50;99.90
4429;DHT22;2227;47.810;8.810;2023-11-21T06:21:10;7.60;99.90
4429;DHT22;2227;47.810;8.810;2023-11-21T06:23:37;7.60;99.90
4429;DHT22;2227;47.810;8.810;2023-11-21T06:26:04;7.70;99.90
4429;DHT22;2227;47.810;8.810;2023-11-21T06:28:32;7.60;99.90
4429;DHT22;2227;47.810;8.810;2023-11-21T06:30:58;7.80;99.90
4429;DHT22;2227;47.810;8.810;2023-11-21T06:33:31;7.70;99.90
4429;DHT22;2227;47.810;8.810;2023-11-21T06:35:58;7.70;99.90
4429;DHT22;2227;47.810;8.810;2023-11-21T06:38:25;7.70;99.90
4429;DHT22;2227;47.810;8.810;2023-11-21T06:40:54;7.60;99.90
4429;DHT22;2227;47.810;8.810;2023-11-21T06:43:21;7.70;99.90
4429;DHT22;2227;47.810;8.810;2023-11-21T06:45:48;7.70;99.90
4429;DHT22;2227;47.810;8.810;2023-11-21T06:48:15;7.70;99.90
4429;DHT22;2227;47.810;8.810;2023-11-21T06:50:42;7.60;99.90
4429;DHT22;2227;47.810;8.810;2023-11-21T06:53:09;7.60;99.90
4429;DHT22;2227;47.810;8.810;2023-11-21T06:55:36;7.60;99.90
4429;DHT22;2227;47.810;8.810;2023-11-21T06:58:03;7.60;99.90
4429;DHT22;2227;47.810;8.810;2023-11-21T07:00:29;7.60;99.90
4429;DHT22;2227;47.810;8.810;2023-11-21T07:02:56;7.60;99.90
4429;DHT22;2227;47.810;8.810;2023-11-21T07:05:23;7.70;99.90
4429;DHT22;2227;47.810;8.810;2023-11-21T07:07:50;7.70;99.90
4429;DHT22;2227;47.810;8.810;2023-11-21T07:10:17;7.80;99.90
4429;DHT22;2227;47.810;8.810;2023-11-21T07:12:44;7.80;99.90
4429;DHT22;2227;47.810;8.810;2023-11-21T07:15:11;8.00;99.90
4429;DHT22;2227;47.810;8.810;2023-11-21T07:17:37;7.90;99.90
4429;DHT22;2227;47.810;8.810;2023-11-21T07:20:07;7.90;99.90
4429;DHT22;2227;47.810;8.810;2023-11-21T07:22:35;7.90;99.90
4429;DHT22;2227;47.810;8.810;2023-11-21T07:25:01;7.80;99.90
4429;DHT22;2227;47.810;8.810;2023-11-21T07:27:28;7.80;99.90
4429;DHT22;2227;47.810;8.810;2023-11-21T07:29:55;7.90;99.90
4429;DHT22;2227;47.810;8.810;2023-11-21T07:32:22;7.80;99.90
4429;DHT22;2227;47.810;8.810;2023-11-21T07:34:48;7.90;99.90
4429;DHT22;2227;47.810;8.810;2023-11-21T07:37:15;7.90;99.90
4429;DHT22;2227;47.810;8.810;2023-11-21T07:39:42;7.90;99.90
4429;DHT22;2227;47.810;8.810;2023-11-21T07:42:09;8.00;99.90
4429;DHT22;2227;47.810;8.810;2023-11-21T07:44:37;8.00;99.90
4429;DHT22;2227;47.810;8.810;2023-11-21T07:47:04;8.10;99.90
4429;DHT22;2227;47.810;8.810;2023-11-21T07:49:31;8.30;99.90
4429;DHT22;2227;47.810;8.810;2023-11-21T07:51:58;8.40;99.90
4429;DHT22;2227;47.810;8.810;2023-11-21T07:54:24;8.40;99.90
4429;DHT22;2227;47.810;8.810;2023-11-21T07:56:51;8.50;99.90
4429;DHT22;2227;47.810;8.810;2023-11-21T07:59:18;8.60;99.90
4429;DHT22;2227;47.810;8.810;2023-11-21T08:01:44;8.60;99.90
4429;DHT22;2227;47.810;8.810;2023-11-21T08:04:12;8.60;99.90
4429;DHT22;2227;47.810;8.810;2023-11-21T08:06:39;8.70;99.90
4429;DHT22;2227;47.810;8.810;2023-11-21T08:09:08;8.60;99.90
4429;DHT22;2227;47.810;8.810;2023-11-21T08:11:35;8.50;99.90
4429;DHT22;2227;47.810;8.810;2023-11-21T08:14:01;8.60;99.90
4429;DHT22;2227;47.810;8.810;2023-11-21T08:16:28;8.50;99.90
4429;DHT22;2227;47.810;8.810;2023-11-21T08:18:55;8.60;99.90
4429;DHT22;2227;47.810;8.810;2023-11-21T08:21:22;8.50;99.90
4429;DHT22;2227;47.810;8.810;2023-11-21T08:23:55;8.40;99.90
4429;DHT22;2227;47.810;8.810;2023-11-21T08:26:22;8.40;99.90
4429;DHT22;2227;47.810;8.810;2023-11-21T08:28:50;8.30;99.90
4429;DHT22;2227;47.810;8.810;2023-11-21T08:31:24;8.40;99.90
4429;DHT22;2227;47.810;8.810;2023-11-21T08:33:52;8.30;99.90
4429;DHT22;2227;47.810;8.810;2023-11-21T08:36:23;8.40;99.90
4429;DHT22;2227;47.810;8.810;2023-11-21T08:38:51;8.50;99.90
4429;DHT22;2227;47.810;8.810;2023-11-21T08:41:21;8.60;99.90
4429;DHT22;2227;47.810;8.810;2023-11-21T08:43:49;8.70;99.90
4429;DHT22;2227;47.810;8.810;2023-11-21T08:46:17;8.80;99.90
4429;DHT22;2227;47.810;8.810;2023-11-21T08:48:44;8.90;99.90
4429;DHT22;2227;47.810;8.810;2023-11-21T08:51:12;8.80;99.90
4429;DHT22;2227;47.810;8.810;2023-11-21T08:53:40;8.70;99.90
4429;DHT22;2227;47.810;8.810;2023-11-21T08:56:07;8.60;99.90
4429;DHT22;2227;47.810;8.810;2023-11-21T08:58:36;8.70;99.90
4429;DHT22;2227;47.810;8.810;2023-11-21T09:01:04;8.60;99.90
4429;DHT22;2227;47.810;8.810;2023-11-21T09:03:32;8.70;99.90
4429;DHT22;2227;47.810;8.810;2023-11-21T09:06:01;8.70;99.90
4429;DHT22;2227;47.810;8.810;2023-11-21T09:08:27;8.70;99.90
4429;DHT22;2227;47.810;8.810;2023-11-21T09:10:56;8.70;99.90
4429;DHT22;2227;47.810;8.810;2023-11-21T09:13:22;8.70;99.90
4429;DHT22;2227;47.810;8.810;2023-11-21T09:15:52;8.90;99.90
4429;DHT22;2227;47.810;8.810;2023-11-21T09:18:18;9.00;99.90
4429;DHT22;2227;47.810;8.810;2023-11-21T09:20:45;9.10;99.90
4429;DHT22;2227;47.810;8.810;2023-11-21T09:23:12;9.00;99.90
4429;DHT22;2227;47.810;8.810;2023-11-21T09:25:39;9.10;99.90
4429;DHT22;2227;47.810;8.810;2023-11-21T09:28:06;9.30;99.90
4429;DHT22;2227;47.810;8.810;2023-11-21T09:30:36;9.30;99.90
4429;DHT22;2227;47.810;8.810;2023-11-21T09:33:03;9.50;99.90
4429;DHT22;2227;47.810;8.810;2023-11-21T09:35:32;9.60;99.90
4429;DHT22;2227;47.810;8.810;2023-11-21T09:37:59;9.60;99.90
4429;DHT22;2227;47.810;8.810;2023-11-21T09:40:28;9.60;99.90
4429;DHT22;2227;47.810;8.810;2023-11-21T09:42:56;9.50;99.90
4429;DHT22;2227;47.810;8.810;2023-11-21T09:45:28;9.70;99.90
4429;DHT22;2227;47.810;8.810;2023-11-21T09:47:56;9.90;99.90
4429;DHT22;2227;47.810;8.810;2023-11-21T09:50:24;10.30;99.90
4429;DHT22;2227;47.810;8.810;2023-11-21T09:55:47;11.90;99.90
4429;DHT22;2227;47.810;8.810;2023-11-21T09:58:14;13.00;99.90
4429;DHT22;2227;47.810;8.810;2023-11-21T10:00:46;13.40;99.90
4429;DHT22;2227;47.810;8.810;2023-11-21T10:03:13;14.50;99.90
4429;DHT22;2227;47.810;8.810;2023-11-21T10:05:45;16.30;99.90
4429;DHT22;2227;47.810;8.810;2023-11-21T10:08:14;17.70;99.90
4429;DHT22;2227;47.810;8.810;2023-11-21T10:10:45;18.20;99.90
4429;DHT22;2227;47.810;8.810;2023-11-21T10:13:13;18.70;99.90
4429;DHT22;2227;47.810;8.810;2023-11-21T10:15:43;19.20;99.90
4429;DHT22;2227;47.810;8.810;2023-11-21T10:18:15;18.80;99.90
4429;DHT22;2227;47.810;8.810;2023-11-21T10:20:42;17.50;99.90
4429;DHT22;2227;47.810;8.810;2023-11-21T10:23:11;17.80;99.90
4429;DHT22;2227;47.810;8.810;2023-11-21T10:25:39;18.50;99.90
4429;DHT22;2227;47.810;8.810;2023-11-21T10:28:06;19.60;99.90
4429;DHT22;2227;47.810;8.810;2023-11-21T10:30:35;20.50;99.90
4429;DHT22;2227;47.810;8.810;2023-11-21T10:33:05;20.20;99.90
4429;DHT22;2227;47.810;8.810;2023-11-21T10:38:08;20.50;99.90
4429;DHT22;2227;47.810;8.810;2023-11-21T10:40:40;20.00;99.90
4429;DHT22;2227;47.810;8.810;2023-11-21T10:43:09;19.80;99.90
4429;DHT22;2227;47.810;8.810;2023-11-21T10:45:37;18.40;99.90
4429;DHT22;2227;47.810;8.810;2023-11-21T10:48:08;17.40;99.90
4429;DHT22;2227;47.810;8.810;2023-11-21T10:50:35;16.40;99.90
4429;DHT22;2227;47.810;8.810;2023-11-21T10:53:03;15.40;99.90
4429;DHT22;2227;47.810;8.810;2023-11-21T10:55:32;15.00;99.90
4429;DHT22;2227;47.810;8.810;2023-11-21T10:58:01;14.90;99.90
4429;DHT22;2227;47.810;8.810;2023-11-21T11:00:34;15.00;99.90
4429;DHT22;2227;47.810;8.810;2023-11-21T11:03:02;14.90;99.90
4429;DHT22;2227;47.810;8.810;2023-11-21T11:05:30;14.40;99.90
4429;DHT22;2227;47.810;8.810;2023-11-21T11:08:02;14.10;99.90
4429;DHT22;2227;47.810;8.810;2023-11-21T11:10:30;13.70;99.90
4429;DHT22;2227;47.810;8.810;2023-11-21T11:12:58;13.70;99.90
4429;DHT22;2227;47.810;8.810;2023-11-21T11:15:26;13.50;99.90
4429;DHT22;2227;47.810;8.810;2023-11-21T11:17:53;13.10;99.90
4429;DHT22;2227;47.810;8.810;2023-11-21T11:20:30;12.90;99.90
4429;DHT22;2227;47.810;8.810;2023-11-21T11:28:59;12.20;99.90
4429;DHT22;2227;47.810;8.810;2023-11-21T11:31:50;12.40;99.90
4429;DHT22;2227;47.810;8.810;2023-11-21T11:34:29;12.30;99.90
4429;DHT22;2227;47.810;8.810;2023-11-21T11:37:04;11.80;99.90
4429;DHT22;2227;47.810;8.810;2023-11-21T11:39:40;11.30;99.90
4429;DHT22;2227;47.810;8.810;2023-11-21T11:42:16;10.90;99.90
4429;DHT22;2227;47.810;8.810;2023-11-21T11:47:27;10.90;99.90
4429;DHT22;2227;47.810;8.810;2023-11-21T11:52:40;11.00;99.90
4429;DHT22;2227;47.810;8.810;2023-11-21T11:55:15;11.40;99.90
4429;DHT22;2227;47.810;8.810;2023-11-21T11:57:52;11.50;99.90
4429;DHT22;2227;47.810;8.810;2023-11-21T12:00:36;11.40;99.90
4429;DHT22;2227;47.810;8.810;2023-11-21T12:03:08;11.00;99.90
4429;DHT22;2227;47.810;8.810;2023-11-21T12:05:36;11.00;99.90
4429;DHT22;2227;47.810;8.810;2023-11-21T12:08:07;11.40;99.90
4429;DHT22;2227;47.810;8.810;2023-11-21T12:10:35;11.60;99.90
4429;DHT22;2227;47.810;8.810;2023-11-21T12:13:06;11.80;99.90
4429;DHT22;2227;47.810;8.810;2023-11-21T12:15:34;12.00;99.90
4429;DHT22;2227;47.810;8.810;2023-11-21T12:18:02;12.30;99.90
4429;DHT22;2227;47.810;8.810;2023-11-21T12:20:30;12.40;99.90
4429;DHT22;2227;47.810;8.810;2023-11-21T12:22:59;12.60;99.90
4429;DHT22;2227;47.810;8.810;2023-11-21T12:25:31;12.60;99.90
4429;DHT22;2227;47.810;8.810;2023-11-21T12:28:00;12.70;99.90
4429;DHT22;2227;47.810;8.810;2023-11-21T12:30:31;12.90;99.90
4429;DHT22;2227;47.810;8.810;2023-11-21T12:32:59;13.00;99.90
4429;DHT22;2227;47.810;8.810;2023-11-21T12:35:29;13.20;99.90
4429;DHT22;2227;47.810;8.810;2023-11-21T12:37:57;13.10;99.90
4429;DHT22;2227;47.810;8.810;2023-11-21T12:40:24;13.20;99.90
4429;DHT22;2227;47.810;8.810;2023-11-21T12:42:53;13.30;99.90
4429;DHT22;2227;47.810;8.810;2023-11-21T12:45:22;13.30;99.90
4429;DHT22;2227;47.810;8.810;2023-11-21T12:47:56;13.30;99.90
4429;DHT22;2227;47.810;8.810;2023-11-21T12:50:27;13.30;99.90
4429;DHT22;2227;47.810;8.810;2023-11-21T12:53:03;13.20;99.90
4429;DHT22;2227;47.810;8.810;2023-11-21T12:55:33;13.20;99.90
4429;DHT22;2227;47.810;8.810;2023-11-21T12:58:03;13.20;99.90
4429;DHT22;2227;47.810;8.810;2023-11-21T13:00:49;13.10;99.90
4429;DHT22;2227;47.810;8.810;2023-11-21T13:03:17;13.00;99.90
4429;DHT22;2227;47.810;8.810;2023-11-21T13:05:47;13.00;99.90
4429;DHT22;2227;47.810;8.810;2023-11-21T13:08:20;13.00;99.90
4429;DHT22;2227;47.810;8.810;2023-11-21T13:10:54;13.10;99.90
4429;DHT22;2227;47.810;8.810;2023-11-21T13:13:23;13.00;99.90
4429;DHT22;2227;47.810;8.810;2023-11-21T13:16:00;13.10;99.90
4429;DHT22;2227;47.810;8.810;2023-11-21T13:18:28;13.10;99.90
4429;DHT22;2227;47.810;8.810;2023-11-21T13:20:57;13.10;99.90
4429;DHT22;2227;47.810;8.810;2023-11-21T13:23:25;13.10;99.90
4429;DHT22;2227;47.810;8.810;2023-11-21T13:25:52;13.00;99.90
4429;DHT22;2227;47.810;8.810;2023-11-21T13:28:33;13.00;99.90
4429;DHT22;2227;47.810;8.810;2023-11-21T13:31:02;13.00;99.90
4429;DHT22;2227;47.810;8.810;2023-11-21T13:33:48;13.00;99.90
4429;DHT22;2227;47.810;8.810;2023-11-21T13:36:23;13.00;99.90
4429;DHT22;2227;47.810;8.810;2023-11-21T13:38:50;13.00;99.90
4429;DHT22;2227;47.810;8.810;2023-11-21T13:41:19;13.00;99.90
4429;DHT22;2227;47.810;8.810;2023-11-21T13:43:46;12.80;99.90
4429;DHT22;2227;47.810;8.810;2023-11-21T13:46:17;12.80;99.90
4429;DHT22;2227;47.810;8.810;2023-11-21T13:48:49;13.00;99.90
4429;DHT22;2227;47.810;8.810;2023-11-21T13:51:23;13.10;99.90
4429;DHT22;2227;47.810;8.810;2023-11-21T13:54:03;13.00;99.90
4429;DHT22;2227;47.810;8.810;2023-11-21T13:56:31;13.10;99.90
4429;DHT22;2227;47.810;8.810;2023-11-21T13:58:59;13.10;99.90
4429;DHT22;2227;47.810;8.810;2023-11-21T14:01:32;13.10;99.90
4429;DHT22;2227;47.810;8.810;2023-11-21T14:04:22;13.00;99.90
4429;DHT22;2227;47.810;8.810;2023-11-21T14:07:07;13.20;99.90
4429;DHT22;2227;47.810;8.810;2023-11-21T14:09:49;13.40;99.90
4429;DHT22;2227;47.810;8.810;2023-11-21T14:12:16;13.90;99.90
4429;DHT22;2227;47.810;8.810;2023-11-21T14:14:43;14.00;99.90
4429;DHT22;2227;47.810;8.810;2023-11-21T14:17:10;14.00;99.90
4429;DHT22;2227;47.810;8.810;2023-11-21T14:19:37;13.70;99.90
4429;DHT22;2227;47.810;8.810;2023-11-21T14:22:10;13.50;99.90
4429;DHT22;2227;47.810;8.810;2023-11-21T14:24:37;13.30;99.90
4429;DHT22;2227;47.810;8.810;2023-11-21T14:27:04;13.20;99.90
4429;DHT22;2227;47.810;8.810;2023-11-21T14:29:31;13.20;99.90
4429;DHT22;2227;47.810;8.810;2023-11-21T14:32:03;13.00;99.90
4429;DHT22;2227;47.810;8.810;2023-11-21T14:34:30;12.90;99.90
4429;DHT22;2227;47.810;8.810;2023-11-21T14:36:57;12.60;99.90
4429;DHT22;2227;47.810;8.810;2023-11-21T14:39:24;12.50;99.90
4429;DHT22;2227;47.810;8.810;2023-11-21T14:41:54;12.30;99.90
4429;DHT22;2227;47.810;8.810;2023-11-21T14:44:22;12.30;99.90
4429;DHT22;2227;47.810;8.810;2023-11-21T14:46:53;12.30;99.90
4429;DHT22;2227;47.810;8.810;2023-11-21T14:49:24;12.30;99.90
4429;DHT22;2227;47.810;8.810;2023-11-21T14:51:54;12.40;99.90
4429;DHT22;2227;47.810;8.810;2023-11-21T14:54:31;12.30;99.90
4429;DHT22;2227;47.810;8.810;2023-11-21T14:57:08;12.30;99.90
4429;DHT22;2227;47.810;8.810;2023-11-21T14:59:47;12.10;99.90
4429;DHT22;2227;47.810;8.810;2023-11-21T15:02:24;12.10;99.90
4429;DHT22;2227;47.810;8.810;2023-11-21T15:05:10;11.90;99.90
4429;DHT22;2227;47.810;8.810;2023-11-21T15:07:43;11.80;99.90
4429;DHT22;2227;47.810;8.810;2023-11-21T15:10:12;11.80;99.90
4429;DHT22;2227;47.810;8.810;2023-11-21T15:12:42;11.80;99.90
4429;DHT22;2227;47.810;8.810;2023-11-21T15:15:11;11.70;99.90
4429;DHT22;2227;47.810;8.810;2023-11-21T15:17:40;11.70;99.90
4429;DHT22;2227;47.810;8.810;2023-11-21T15:20:10;11.60;99.90
4429;DHT22;2227;47.810;8.810;2023-11-21T15:22:39;11.60;99.90
4429;DHT22;2227;47.810;8.810;2023-11-21T15:25:06;11.60;99.90
4429;DHT22;2227;47.810;8.810;2023-11-21T15:27:37;11.40;99.90
4429;DHT22;2227;47.810;8.810;2023-11-21T15:30:04;11.50;99.90
4429;DHT22;2227;47.810;8.810;2023-11-21T15:32:31;11.40;99.90
4429;DHT22;2227;47.810;8.810;2023-11-21T15:34:58;11.50;99.90
4429;DHT22;2227;47.810;8.810;2023-11-21T15:37:24;11.40;99.90
4429;DHT22;2227;47.810;8.810;2023-11-21T15:39:54;11.40;99.90
4429;DHT22;2227;47.810;8.810;2023-11-21T15:42:20;11.40;99.90
4429;DHT22;2227;47.810;8.810;2023-11-21T15:44:47;11.30;99.90
4429;DHT22;2227;47.810;8.810;2023-11-21T15:47:14;11.10;99.90
4429;DHT22;2227;47.810;8.810;2023-11-21T15:49:41;10.90;99.90
4429;DHT22;2227;47.810;8.810;2023-11-21T15:52:07;11.00;99.90
4429;DHT22;2227;47.810;8.810;2023-11-21T15:54:38;11.00;99.90
4429;DHT22;2227;47.810;8.810;2023-11-21T15:57:07;11.00;99.90
4429;DHT22;2227;47.810;8.810;2023-11-21T15:59:34;11.00;99.90
4429;DHT22;2227;47.810;8.810;2023-11-21T16:02:01;11.00;99.90
4429;DHT22;2227;47.810;8.810;2023-11-21T16:04:32;10.90;99.90
4429;DHT22;2227;47.810;8.810;2023-11-21T16:06:59;11.00;99.90
4429;DHT22;2227;47.810;8.810;2023-11-21T16:09:26;10.90;99.90
4429;DHT22;2227;47.810;8.810;2023-11-21T16:12:01;10.90;99.90
4429;DHT22;2227;47.810;8.810;2023-11-21T16:14:30;11.00;99.90
4429;DHT22;2227;47.810;8.810;2023-11-21T16:17:12;11.00;99.90
4429;DHT22;2227;47.810;8.810;2023-11-21T16:19:39;10.90;99.90
4429;DHT22;2227;47.810;8.810;2023-11-21T16:22:06;10.50;99.90
4429;DHT22;2227;47.810;8.810;2023-11-21T16:24:33;10.30;99.90
4429;DHT22;2227;47.810;8.810;2023-11-21T16:27:00;10.30;99.90
4429;DHT22;2227;47.810;8.810;2023-11-21T16:29:28;10.40;99.90
4429;DHT22;2227;47.810;8.810;2023-11-21T16:31:57;10.50;99.90
4429;DHT22;2227;47.810;8.810;2023-11-21T16:34:24;10.60;99.90
4429;DHT22;2227;47.810;8.810;2023-11-21T16:36:51;10.50;99.90
4429;DHT22;2227;47.810;8.810;2023-11-21T16:39:18;10.40;99.90
4429;DHT22;2227;47.810;8.810;2023-11-21T16:41:46;10.50;99.90
4429;DHT22;2227;47.810;8.810;2023-11-21T16:44:18;10.50;99.90
4429;DHT22;2227;47.810;8.810;2023-11-21T16:46:54;10.60;99.90
4429;DHT22;2227;47.810;8.810;2023-11-21T16:49:23;10.40;99.90
4429;DHT22;2227;47.810;8.810;2023-11-21T16:51:53;10.40;99.90
4429;DHT22;2227;47.810;8.810;2023-11-21T16:54:20;10.10;99.90
4429;DHT22;2227;47.810;8.810;2023-11-21T16:56:47;10.10;99.90
4429;DHT22;2227;47.810;8.810;2023-11-21T16:59:14;10.20;99.90
4429;DHT22;2227;47.810;8.810;2023-11-21T17:01:42;10.20;99.90
4429;DHT22;2227;47.810;8.810;2023-11-21T17:04:10;10.10;99.90
4429;DHT22;2227;47.810;8.810;2023-11-21T17:06:42;10.10;99.90
4429;DHT22;2227;47.810;8.810;2023-11-21T17:09:09;10.00;99.90
4429;DHT22;2227;47.810;8.810;2023-11-21T17:11:40;10.10;99.90
4429;DHT22;2227;47.810;8.810;2023-11-21T17:14:08;10.20;99.90
4429;DHT22;2227;47.810;8.810;2023-11-21T17:16:35;10.10;99.90
4429;DHT22;2227;47.810;8.810;2023-11-21T17:19:02;10.00;99.90
4429;DHT22;2227;47.810;8.810;2023-11-21T17:21:30;10.10;99.90
4429;DHT22;2227;47.810;8.810;2023-11-21T17:24:00;10.20;99.90
4429;DHT22;2227;47.810;8.810;2023-11-21T17:26:28;10.20;99.90
4429;DHT22;2227;47.810;8.810;2023-11-21T17:28:55;10.20;99.90
4429;DHT22;2227;47.810;8.810;2023-11-21T17:31:23;10.20;99.90
4429;DHT22;2227;47.810;8.810;2023-11-21T17:33:50;10.20;99.90
4429;DHT22;2227;47.810;8.810;2023-11-21T17:36:17;10.30;99.90
4429;DHT22;2227;47.810;8.810;2023-11-21T17:38:45;10.30;99.90
4429;DHT22;2227;47.810;8.810;2023-11-21T17:41:12;10.30;99.90
4429;DHT22;2227;47.810;8.810;2023-11-21T17:43:39;10.30;99.90
4429;DHT22;2227;47.810;8.810;2023-11-21T17:46:08;10.20;99.90
4429;DHT22;2227;47.810;8.810;2023-11-21T17:48:35;10.00;99.90
4429;DHT22;2227;47.810;8.810;2023-11-21T17:51:04;10.10;99.90
4429;DHT22;2227;47.810;8.810;2023-11-21T17:53:31;9.90;99.90
4429;DHT22;2227;47.810;8.810;2023-11-21T17:55:58;9.60;99.90
4429;DHT22;2227;47.810;8.810;2023-11-21T17:58:25;9.50;99.90
4429;DHT22;2227;47.810;8.810;2023-11-21T18:00:53;9.30;99.90
4429;DHT22;2227;47.810;8.810;2023-11-21T18:03:20;9.20;99.90
4429;DHT22;2227;47.810;8.810;2023-11-21T18:05:47;9.30;99.90
4429;DHT22;2227;47.810;8.810;2023-11-21T18:08:14;9.10;99.90
4429;DHT22;2227;47.810;8.810;2023-11-21T18:10:41;9.10;99.90
4429;DHT22;2227;47.810;8.810;2023-11-21T18:13:08;9.00;99.90
4429;DHT22;2227;47.810;8.810;2023-11-21T18:15:38;8.70;99.90
4429;DHT22;2227;47.810;8.810;2023-11-21T18:18:05;8.80;99.90
4429;DHT22;2227;47.810;8.810;2023-11-21T18:20:32;8.80;99.90
4429;DHT22;2227;47.810;8.810;2023-11-21T18:22:59;9.00;99.90
4429;DHT22;2227;47.810;8.810;2023-11-21T18:25:26;9.00;99.90
4429;DHT22;2227;47.810;8.810;2023-11-21T18:27:55;9.30;99.90
4429;DHT22;2227;47.810;8.810;2023-11-21T18:30:22;9.40;99.90
4429;DHT22;2227;47.810;8.810;2023-11-21T18:32:49;9.20;99.90
4429;DHT22;2227;47.810;8.810;2023-11-21T18:35:16;9.20;99.90
4429;DHT22;2227;47.810;8.810;2023-11-21T18:37:43;9.10;99.90
4429;DHT22;2227;47.810;8.810;2023-11-21T18:40:13;9.10;99.90
4429;DHT22;2227;47.810;8.810;2023-11-21T18:42:42;9.20;99.90
4429;DHT22;2227;47.810;8.810;2023-11-21T18:45:12;9.40;99.90
4429;DHT22;2227;47.810;8.810;2023-11-21T18:47:39;9.50;99.90
4429;DHT22;2227;47.810;8.810;2023-11-21T18:50:06;9.60;99.90
4429;DHT22;2227;47.810;8.810;2023-11-21T18:52:33;9.40;99.90
4429;DHT22;2227;47.810;8.810;2023-11-21T18:55:00;9.10;99.90
4429;DHT22;2227;47.810;8.810;2023-11-21T18:57:29;9.20;99.90
4429;DHT22;2227;47.810;8.810;2023-11-21T18:59:58;9.40;99.90
4429;DHT22;2227;47.810;8.810;2023-11-21T19:02:24;9.50;99.90
4429;DHT22;2227;47.810;8.810;2023-11-21T19:04:52;9.50;99.90
4429;DHT22;2227;47.810;8.810;2023-11-21T19:07:19;9.50;99.90
4429;DHT22;2227;47.810;8.810;2023-11-21T19:09:49;9.30;99.90
4429;DHT22;2227;47.810;8.810;2023-11-21T19:12:18;9.20;99.90
4429;DHT22;2227;47.810;8.810;2023-11-21T19:14:45;9.40;99.90
4429;DHT22;2227;47.810;8.810;2023-11-21T19:17:13;9.30;99.90
4429;DHT22;2227;47.810;8.810;2023-11-21T19:19:40;9.10;99.90
4429;DHT22;2227;47.810;8.810;2023-11-21T19:22:07;9.20;99.90
4429;DHT22;2227;47.810;8.810;2023-11-21T19:24:34;9.40;99.90
4429;DHT22;2227;47.810;8.810;2023-11-21T19:27:01;9.30;99.90
4429;DHT22;2227;47.810;8.810;2023-11-21T19:29:29;9.40;99.90
4429;DHT22;2227;47.810;8.810;2023-11-21T19:31:56;9.50;99.90
4429;DHT22;2227;47.810;8.810;2023-11-21T19:34:23;9.60;99.90
4429;DHT22;2227;47.810;8.810;2023-11-21T19:36:51;9.60;99.90
4429;DHT22;2227;47.810;8.810;2023-11-21T19:39:18;9.70;99.90
4429;DHT22;2227;47.810;8.810;2023-11-21T19:41:45;9.60;99.90
4429;DHT22;2227;47.810;8.810;2023-11-21T19:44:13;9.60;99.90
4429;DHT22;2227;47.810;8.810;2023-11-21T19:46:40;9.60;99.90
4429;DHT22;2227;47.810;8.810;2023-11-21T19:49:07;9.60;99.90
4429;DHT22;2227;47.810;8.810;2023-11-21T19:51:36;9.60;99.90
4429;DHT22;2227;47.810;8.810;2023-11-21T19:54:03;9.70;99.90
4429;DHT22;2227;47.810;8.810;2023-11-21T19:56:32;9.60;99.90
4429;DHT22;2227;47.810;8.810;2023-11-21T19:59:01;9.60;99.90
4429;DHT22;2227;47.810;8.810;2023-11-21T20:01:28;9.70;99.90
4429;DHT22;2227;47.810;8.810;2023-11-21T20:03:56;9.60;99.90
4429;DHT22;2227;47.810;8.810;2023-11-21T20:06:23;9.50;99.90
4429;DHT22;2227;47.810;8.810;2023-11-21T20:08:51;9.40;99.90
4429;DHT22;2227;47.810;8.810;2023-11-21T20:11:21;9.40;99.90
4429;DHT22;2227;47.810;8.810;2023-11-21T20:13:49;9.40;99.90
4429;DHT22;2227;47.810;8.810;2023-11-21T20:16:16;9.40;99.90
4429;DHT22;2227;47.810;8.810;2023-11-21T20:18:45;9.40;99.90
4429;DHT22;2227;47.810;8.810;2023-11-21T20:21:19;9.40;99.90
4429;DHT22;2227;47.810;8.810;2023-11-21T20:23:47;9.50;99.90
4429;DHT22;2227;47.810;8.810;2023-11-21T20:26:23;9.50;99.90
4429;DHT22;2227;47.810;8.810;2023-11-21T20:28:52;9.50;99.90
4429;DHT22;2227;47.810;8.810;2023-11-21T20:31:20;9.50;99.90
4429;DHT22;2227;47.810;8.810;2023-11-21T20:33:47;9.50;99.90
4429;DHT22;2227;47.810;8.810;2023-11-21T20:36:14;9.50;99.90
4429;DHT22;2227;47.810;8.810;2023-11-21T20:38:41;9.50;99.90
4429;DHT22;2227;47.810;8.810;2023-11-21T20:41:08;9.40;99.90
4429;DHT22;2227;47.810;8.810;2023-11-21T20:43:39;9.40;99.90
4429;DHT22;2227;47.810;8.810;2023-11-21T20:46:07;9.40;99.90
4429;DHT22;2227;47.810;8.810;2023-11-21T20:48:33;9.40;99.90
4429;DHT22;2227;47.810;8.810;2023-11-21T20:51:01;9.30;99.90
4429;DHT22;2227;47.810;8.810;2023-11-21T20:53:29;9.50;99.90
4429;DHT22;2227;47.810;8.810;2023-11-21T20:55:56;9.40;99.90
4429;DHT22;2227;47.810;8.810;2023-11-21T20:58:26;9.50;99.90
4429;DHT22;2227;47.810;8.810;2023-11-21T21:00:52;9.50;99.90
4429;DHT22;2227;47.810;8.810;2023-11-21T21:03:20;9.40;99.90
4429;DHT22;2227;47.810;8.810;2023-11-21T21:05:47;9.40;99.90
4429;DHT22;2227;47.810;8.810;2023-11-21T21:08:14;9.50;99.90
4429;DHT22;2227;47.810;8.810;2023-11-21T21:10:41;9.40;99.90
4429;DHT22;2227;47.810;8.810;2023-11-21T21:13:08;9.30;99.90
4429;DHT22;2227;47.810;8.810;2023-11-21T21:15:38;9.30;99.90
4429;DHT22;2227;47.810;8.810;2023-11-21T21:18:06;9.20;99.90
4429;DHT22;2227;47.810;8.810;2023-11-21T21:20:33;9.20;99.90
4429;DHT22;2227;47.810;8.810;2023-11-21T21:23:00;9.20;99.90
4429;DHT22;2227;47.810;8.810;2023-11-21T21:25:27;9.20;99.90